DKJ344 EGCC-LEPA
Flight info
| Callsign | DKJ344 |
|---|---|
| Flight time | 2h 14m |
| Altitude | 39000 |
| Route | LISTO P18 TELBA L151 KIDLI UN859 SOPIL DCT BALAN DCT EVPOK DCT NARAK DCT GAI DCT LOMRA DCT ROCAN DCT IBRAP DCT LUKEV DCT LORES |
| Aircraft | A20N/M-SDE2E3FGHIRWXY/LB1 |
Departure
| Time | 2026-05-04 14:28 |
|---|---|
| Airport | Manchester Airport (EGCC) |
Arrival
| Time | 2026-05-04 16:43 |
|---|---|
| Airport | Palma de Mallorca Airport (LEPA) |
| Time | Latitude | Longitude | Altitude | Speed | Heading |
|---|---|---|---|---|---|
| 2026-05-04 14:11 | 53.36891 | -2.28789 | 255 ft | 0 kts | 135° |
| 2026-05-04 14:18 | 53.36911 | -2.28823 | 255 ft | 3 kts | 135° |
| 2026-05-04 14:19 | 53.36947 | -2.28806 | 255 ft | 4 kts | 225° |
| 2026-05-04 14:19 | 53.36953 | -2.28796 | 255 ft | 0 kts | 225° |
| 2026-05-04 14:22 | 53.36948 | -2.28805 | 255 ft | 3 kts | 224° |
| 2026-05-04 14:22 | 53.36911 | -2.28866 | 255 ft | 13 kts | 224° |
| 2026-05-04 14:22 | 53.36861 | -2.28949 | 255 ft | 17 kts | 225° |
| 2026-05-04 14:22 | 53.36771 | -2.29036 | 255 ft | 16 kts | 194° |
| 2026-05-04 14:23 | 53.36595 | -2.28821 | 255 ft | 17 kts | 119° |
| 2026-05-04 14:23 | 53.36520 | -2.28656 | 255 ft | 19 kts | 134° |
| 2026-05-04 14:23 | 53.36430 | -2.28499 | 255 ft | 18 kts | 132° |
| 2026-05-04 14:24 | 53.36371 | -2.28316 | 255 ft | 19 kts | 135° |
| 2026-05-04 14:24 | 53.36271 | -2.28163 | 255 ft | 20 kts | 135° |
| 2026-05-04 14:24 | 53.36165 | -2.27988 | 255 ft | 22 kts | 141° |
| 2026-05-04 14:24 | 53.36042 | -2.27823 | 255 ft | 23 kts | 144° |
| 2026-05-04 14:25 | 53.35888 | -2.27730 | 255 ft | 26 kts | 181° |
| 2026-05-04 14:25 | 53.35671 | -2.27586 | 246 ft | 16 kts | 142° |
| 2026-05-04 14:25 | 53.35583 | -2.27472 | 244 ft | 0 kts | 140° |
| 2026-05-04 14:26 | 53.35576 | -2.27463 | 245 ft | 2 kts | 140° |
| 2026-05-04 14:26 | 53.35564 | -2.27446 | 245 ft | 3 kts | 140° |
| 2026-05-04 14:26 | 53.35534 | -2.27406 | 247 ft | 11 kts | 141° |
| 2026-05-04 14:27 | 53.35448 | -2.27291 | 247 ft | 19 kts | 141° |
| 2026-05-04 14:27 | 53.35319 | -2.27194 | 242 ft | 23 kts | 181° |
| 2026-05-04 14:27 | 53.35153 | -2.27248 | 230 ft | 17 kts | 190° |
| 2026-05-04 14:27 | 53.35020 | -2.27308 | 225 ft | 23 kts | 214° |
| 2026-05-04 14:28 | 53.34899 | -2.27548 | 222 ft | 41 kts | 231° |
| 2026-05-04 14:28 | 53.34576 | -2.28213 | 229 ft | 108 kts | 231° |
| 2026-05-04 14:28 | 53.33980 | -2.29448 | 313 ft | 152 kts | 233° |
| 2026-05-04 14:28 | 53.33356 | -2.30858 | 981 ft | 150 kts | 236° |
| 2026-05-04 14:29 | 53.32262 | -2.33999 | 2071 ft | 174 kts | 246° |
| 2026-05-04 14:29 | 53.31858 | -2.38252 | 3104 ft | 208 kts | 283° |
| 2026-05-04 14:30 | 53.32194 | -2.40772 | 3532 ft | 233 kts | 284° |
| 2026-05-04 14:30 | 53.32361 | -2.43576 | 4095 ft | 252 kts | 269° |
| 2026-05-04 14:30 | 53.30893 | -2.49041 | 5584 ft | 274 kts | 221° |
| 2026-05-04 14:31 | 53.29269 | -2.50682 | 6590 ft | 275 kts | 200° |
| 2026-05-04 14:31 | 53.25505 | -2.50686 | 8459 ft | 280 kts | 161° |
| 2026-05-04 14:32 | 53.22589 | -2.46399 | 10020 ft | 293 kts | 116° |
| 2026-05-04 14:32 | 53.21676 | -2.43270 | 10577 ft | 309 kts | 120° |
| 2026-05-04 14:32 | 53.20371 | -2.40312 | 10851 ft | 331 kts | 134° |
| 2026-05-04 14:32 | 53.18598 | -2.37799 | 11319 ft | 344 kts | 145° |
| 2026-05-04 14:33 | 53.16568 | -2.35669 | 12129 ft | 346 kts | 151° |
| 2026-05-04 14:33 | 53.14444 | -2.33740 | 12933 ft | 349 kts | 153° |
| 2026-05-04 14:33 | 53.12271 | -2.31871 | 13742 ft | 353 kts | 153° |
| 2026-05-04 14:33 | 53.10073 | -2.29997 | 14464 ft | 356 kts | 153° |
| 2026-05-04 14:34 | 53.07859 | -2.28101 | 15180 ft | 359 kts | 153° |
| 2026-05-04 14:34 | 53.05628 | -2.26179 | 15885 ft | 363 kts | 153° |
| 2026-05-04 14:34 | 53.03376 | -2.24250 | 16577 ft | 366 kts | 155° |
| 2026-05-04 14:34 | 53.00965 | -2.22863 | 17248 ft | 369 kts | 168° |
| 2026-05-04 14:35 | 52.98408 | -2.22422 | 17917 ft | 371 kts | 182° |
| 2026-05-04 14:35 | 52.95833 | -2.22780 | 18637 ft | 372 kts | 186° |
| 2026-05-04 14:35 | 52.93273 | -2.23198 | 19167 ft | 376 kts | 186° |
| 2026-05-04 14:35 | 52.90654 | -2.23612 | 19735 ft | 380 kts | 185° |
| 2026-05-04 14:36 | 52.88007 | -2.24025 | 20299 ft | 383 kts | 185° |
| 2026-05-04 14:36 | 52.85345 | -2.24607 | 20827 ft | 388 kts | 191° |
| 2026-05-04 14:36 | 52.82699 | -2.25613 | 21372 ft | 392 kts | 192° |
| 2026-05-04 14:36 | 52.80028 | -2.26654 | 21926 ft | 396 kts | 192° |
| 2026-05-04 14:37 | 52.77329 | -2.27699 | 22472 ft | 400 kts | 192° |
| 2026-05-04 14:37 | 52.74608 | -2.28747 | 22985 ft | 404 kts | 192° |
| 2026-05-04 14:37 | 52.71872 | -2.29793 | 23727 ft | 401 kts | 192° |
| 2026-05-04 14:37 | 52.69123 | -2.30606 | 24204 ft | 403 kts | 182° |
| 2026-05-04 14:38 | 52.66324 | -2.30286 | 24587 ft | 406 kts | 167° |
| 2026-05-04 14:38 | 52.63661 | -2.28752 | 24973 ft | 408 kts | 152° |
| 2026-05-04 14:38 | 52.61248 | -2.26263 | 25402 ft | 410 kts | 146° |
| 2026-05-04 14:38 | 52.58869 | -2.23633 | 25835 ft | 413 kts | 145° |
| 2026-05-04 14:39 | 52.56481 | -2.20993 | 26283 ft | 415 kts | 145° |
| 2026-05-04 14:39 | 52.54074 | -2.18346 | 26682 ft | 418 kts | 145° |
| 2026-05-04 14:39 | 52.51652 | -2.15696 | 27092 ft | 420 kts | 145° |
| 2026-05-04 14:40 | 52.46803 | -2.10405 | 27956 ft | 423 kts | 146° |
| 2026-05-04 14:40 | 52.44343 | -2.07731 | 28286 ft | 426 kts | 146° |
| 2026-05-04 14:40 | 52.41866 | -2.05044 | 28646 ft | 428 kts | 146° |
| 2026-05-04 14:40 | 52.39374 | -2.02346 | 28992 ft | 431 kts | 146° |
| 2026-05-04 14:41 | 52.36869 | -1.99635 | 29315 ft | 433 kts | 146° |
| 2026-05-04 14:41 | 52.34345 | -1.96907 | 29593 ft | 437 kts | 147° |
| 2026-05-04 14:41 | 52.29266 | -1.91432 | 30229 ft | 441 kts | 147° |
| 2026-05-04 14:42 | 52.24120 | -1.85906 | 30895 ft | 443 kts | 147° |
| 2026-05-04 14:42 | 52.21539 | -1.83140 | 31195 ft | 444 kts | 147° |
| 2026-05-04 14:42 | 52.18953 | -1.80373 | 31555 ft | 444 kts | 147° |
| 2026-05-04 14:43 | 52.16368 | -1.77610 | 31943 ft | 443 kts | 147° |
| 2026-05-04 14:43 | 52.13787 | -1.74855 | 32330 ft | 442 kts | 147° |
| 2026-05-04 14:43 | 52.11215 | -1.72113 | 32705 ft | 441 kts | 147° |
| 2026-05-04 14:43 | 52.08650 | -1.69382 | 33069 ft | 441 kts | 147° |
| 2026-05-04 14:44 | 52.06088 | -1.66656 | 33420 ft | 440 kts | 147° |
| 2026-05-04 14:44 | 52.03526 | -1.63927 | 33776 ft | 439 kts | 147° |
| 2026-05-04 14:44 | 52.01013 | -1.61251 | 34159 ft | 436 kts | 147° |
| 2026-05-04 14:44 | 51.98473 | -1.58564 | 34406 ft | 436 kts | 147° |
| 2026-05-04 14:45 | 51.95923 | -1.55875 | 34620 ft | 437 kts | 147° |
| 2026-05-04 14:45 | 51.93371 | -1.53190 | 34848 ft | 437 kts | 147° |
| 2026-05-04 14:45 | 51.90821 | -1.50508 | 35065 ft | 437 kts | 147° |
| 2026-05-04 14:45 | 51.88268 | -1.47827 | 35291 ft | 437 kts | 147° |
| 2026-05-04 14:46 | 51.85719 | -1.45148 | 35539 ft | 436 kts | 147° |
| 2026-05-04 14:46 | 51.83167 | -1.42463 | 35723 ft | 437 kts | 147° |
| 2026-05-04 14:46 | 51.80612 | -1.39781 | 35871 ft | 439 kts | 147° |
| 2026-05-04 14:46 | 51.77981 | -1.37256 | 35996 ft | 440 kts | 153° |
| 2026-05-04 14:47 | 51.75200 | -1.35205 | 36178 ft | 440 kts | 160° |
| 2026-05-04 14:47 | 51.72302 | -1.33624 | 36378 ft | 440 kts | 163° |
| 2026-05-04 14:47 | 51.69374 | -1.32161 | 36564 ft | 440 kts | 163° |
| 2026-05-04 14:47 | 51.66452 | -1.30690 | 36723 ft | 440 kts | 163° |
| 2026-05-04 14:48 | 51.63535 | -1.29216 | 36902 ft | 440 kts | 163° |
| 2026-05-04 14:48 | 51.60607 | -1.27737 | 37063 ft | 440 kts | 163° |
| 2026-05-04 14:48 | 51.57685 | -1.26263 | 37231 ft | 440 kts | 163° |
| 2026-05-04 14:48 | 51.54763 | -1.24790 | 37411 ft | 440 kts | 163° |
| 2026-05-04 14:49 | 51.51845 | -1.23321 | 37594 ft | 440 kts | 163° |
| 2026-05-04 14:49 | 51.48944 | -1.21760 | 37723 ft | 440 kts | 159° |
| 2026-05-04 14:49 | 51.46170 | -1.19806 | 37856 ft | 441 kts | 156° |
| 2026-05-04 14:49 | 51.43385 | -1.17736 | 37989 ft | 441 kts | 156° |
| 2026-05-04 14:50 | 51.40601 | -1.15673 | 38124 ft | 441 kts | 156° |
| 2026-05-04 14:50 | 51.37816 | -1.13619 | 38251 ft | 442 kts | 156° |
| 2026-05-04 14:50 | 51.35024 | -1.11564 | 38374 ft | 442 kts | 156° |
| 2026-05-04 14:50 | 51.32227 | -1.09510 | 38484 ft | 442 kts | 156° |
| 2026-05-04 14:51 | 51.29431 | -1.07459 | 38629 ft | 441 kts | 156° |
| 2026-05-04 14:51 | 51.26631 | -1.05410 | 38725 ft | 442 kts | 156° |
| 2026-05-04 14:51 | 51.21032 | -1.01324 | 38889 ft | 442 kts | 156° |
| 2026-05-04 14:52 | 51.15434 | -0.97253 | 38992 ft | 442 kts | 156° |
| 2026-05-04 14:52 | 51.09829 | -0.93186 | 39008 ft | 440 kts | 156° |
| 2026-05-04 14:53 | 51.04301 | -0.89186 | 39007 ft | 440 kts | 156° |
| 2026-05-04 14:53 | 50.98712 | -0.85153 | 39001 ft | 441 kts | 156° |
| 2026-05-04 14:54 | 50.93131 | -0.81136 | 38991 ft | 440 kts | 156° |
| 2026-05-04 14:54 | 50.87553 | -0.77128 | 38991 ft | 440 kts | 156° |
| 2026-05-04 14:55 | 50.82208 | -0.72364 | 38983 ft | 441 kts | 148° |
| 2026-05-04 14:55 | 50.77056 | -0.67068 | 38982 ft | 441 kts | 148° |
| 2026-05-04 14:56 | 50.71931 | -0.61844 | 38983 ft | 441 kts | 148° |
| 2026-05-04 14:56 | 50.66767 | -0.56610 | 38983 ft | 441 kts | 148° |
| 2026-05-04 14:57 | 50.61597 | -0.51386 | 38982 ft | 442 kts | 149° |
| 2026-05-04 14:57 | 50.56424 | -0.46175 | 38983 ft | 442 kts | 149° |
| 2026-05-04 14:58 | 50.51238 | -0.40963 | 38986 ft | 442 kts | 149° |
| 2026-05-04 14:58 | 50.46925 | -0.36640 | 38987 ft | 443 kts | 149° |
| 2026-05-04 14:59 | 50.40846 | -0.30561 | 38989 ft | 443 kts | 149° |
| 2026-05-04 15:00 | 50.33024 | -0.22766 | 38999 ft | 444 kts | 149° |
| 2026-05-04 15:00 | 50.27804 | -0.17583 | 38999 ft | 445 kts | 149° |
| 2026-05-04 15:01 | 50.19987 | -0.09845 | 38993 ft | 445 kts | 149° |
| 2026-05-04 15:01 | 50.14767 | -0.04703 | 38978 ft | 442 kts | 150° |
| 2026-05-04 15:02 | 50.09294 | -0.00345 | 38972 ft | 441 kts | 159° |
| 2026-05-04 15:02 | 50.03464 | 0.02648 | 38980 ft | 441 kts | 168° |
| 2026-05-04 15:03 | 49.98515 | 0.04548 | 38979 ft | 440 kts | 167° |
| 2026-05-04 15:03 | 49.92579 | 0.06864 | 38976 ft | 439 kts | 167° |
| 2026-05-04 15:04 | 49.86671 | 0.09179 | 38967 ft | 437 kts | 167° |
| 2026-05-04 15:04 | 49.80786 | 0.11482 | 38961 ft | 436 kts | 167° |
| 2026-05-04 15:05 | 49.74901 | 0.13777 | 38983 ft | 436 kts | 167° |
| 2026-05-04 15:05 | 49.68966 | 0.15943 | 38991 ft | 439 kts | 170° |
| 2026-05-04 15:06 | 49.63023 | 0.17815 | 38993 ft | 438 kts | 170° |
| 2026-05-04 15:07 | 49.54060 | 0.20696 | 38990 ft | 438 kts | 169° |
| 2026-05-04 15:07 | 49.48092 | 0.22637 | 38989 ft | 439 kts | 169° |
| 2026-05-04 15:08 | 49.42111 | 0.24579 | 38996 ft | 439 kts | 169° |
| 2026-05-04 15:08 | 49.36118 | 0.26517 | 39000 ft | 440 kts | 169° |
| 2026-05-04 15:09 | 49.30129 | 0.28449 | 38997 ft | 440 kts | 170° |
| 2026-05-04 15:09 | 49.24179 | 0.30364 | 38987 ft | 438 kts | 170° |
| 2026-05-04 15:10 | 49.15223 | 0.33236 | 38966 ft | 439 kts | 170° |
| 2026-05-04 15:11 | 49.06248 | 0.36104 | 38963 ft | 438 kts | 170° |
| 2026-05-04 15:11 | 49.00319 | 0.37993 | 38961 ft | 437 kts | 170° |
| 2026-05-04 15:12 | 48.94359 | 0.39887 | 38955 ft | 437 kts | 170° |
| 2026-05-04 15:12 | 48.88409 | 0.41773 | 38948 ft | 436 kts | 170° |
| 2026-05-04 15:13 | 48.82466 | 0.43652 | 38949 ft | 436 kts | 170° |
| 2026-05-04 15:13 | 48.76512 | 0.45532 | 38957 ft | 437 kts | 170° |
| 2026-05-04 15:14 | 48.70571 | 0.47412 | 38955 ft | 437 kts | 170° |
| 2026-05-04 15:14 | 48.64630 | 0.49258 | 38956 ft | 435 kts | 170° |
| 2026-05-04 15:15 | 48.58708 | 0.51116 | 38957 ft | 435 kts | 170° |
| 2026-05-04 15:15 | 48.52812 | 0.52960 | 38955 ft | 435 kts | 170° |
| 2026-05-04 15:16 | 48.43921 | 0.55730 | 38948 ft | 435 kts | 170° |
| 2026-05-04 15:17 | 48.35033 | 0.58489 | 38956 ft | 434 kts | 171° |
| 2026-05-04 15:17 | 48.26149 | 0.61237 | 38952 ft | 434 kts | 171° |
| 2026-05-04 15:18 | 48.20276 | 0.63049 | 38966 ft | 433 kts | 171° |
| 2026-05-04 15:19 | 48.11438 | 0.65766 | 38946 ft | 432 kts | 171° |
| 2026-05-04 15:19 | 48.02618 | 0.68469 | 38937 ft | 431 kts | 171° |
| 2026-05-04 15:20 | 47.96741 | 0.70265 | 38930 ft | 431 kts | 171° |
| 2026-05-04 15:20 | 47.90870 | 0.72054 | 38928 ft | 430 kts | 171° |
| 2026-05-04 15:21 | 47.85000 | 0.73840 | 38924 ft | 430 kts | 171° |
| 2026-05-04 15:22 | 47.76235 | 0.76498 | 38919 ft | 430 kts | 171° |
| 2026-05-04 15:22 | 47.67423 | 0.79160 | 38933 ft | 431 kts | 171° |
| 2026-05-04 15:23 | 47.61538 | 0.80933 | 38935 ft | 431 kts | 171° |
| 2026-05-04 15:23 | 47.55644 | 0.82706 | 38932 ft | 432 kts | 171° |
| 2026-05-04 15:24 | 47.43860 | 0.86238 | 38945 ft | 433 kts | 171° |
| 2026-05-04 15:25 | 47.38014 | 0.87984 | 38929 ft | 430 kts | 171° |
| 2026-05-04 15:26 | 47.29221 | 0.90602 | 38933 ft | 430 kts | 171° |
| 2026-05-04 15:26 | 47.20415 | 0.93215 | 38928 ft | 430 kts | 171° |
| 2026-05-04 15:27 | 47.11624 | 0.95815 | 38927 ft | 429 kts | 171° |
| 2026-05-04 15:28 | 47.02845 | 0.98402 | 38925 ft | 429 kts | 171° |
| 2026-05-04 15:29 | 46.94076 | 1.00979 | 38923 ft | 428 kts | 171° |
| 2026-05-04 15:30 | 46.73680 | 1.06936 | 38916 ft | 427 kts | 172° |
| 2026-05-04 15:31 | 46.64930 | 1.09478 | 38912 ft | 427 kts | 172° |
| 2026-05-04 15:32 | 46.50377 | 1.13689 | 38900 ft | 426 kts | 172° |
| 2026-05-04 15:34 | 46.35809 | 1.17878 | 38897 ft | 427 kts | 172° |
| 2026-05-04 15:34 | 46.27098 | 1.20374 | 38903 ft | 427 kts | 172° |
| 2026-05-04 15:35 | 46.18346 | 1.22873 | 38910 ft | 427 kts | 172° |
| 2026-05-04 15:36 | 46.09627 | 1.25356 | 38912 ft | 424 kts | 172° |
| 2026-05-04 15:36 | 46.03822 | 1.27001 | 38908 ft | 425 kts | 172° |
| 2026-05-04 15:37 | 45.98017 | 1.28645 | 38913 ft | 425 kts | 172° |
| 2026-05-04 15:37 | 45.92222 | 1.30284 | 38908 ft | 424 kts | 172° |
| 2026-05-04 15:38 | 45.86467 | 1.31906 | 38906 ft | 424 kts | 172° |
| 2026-05-04 15:38 | 45.80667 | 1.33538 | 38917 ft | 424 kts | 172° |
| 2026-05-04 15:39 | 45.74870 | 1.35166 | 38916 ft | 425 kts | 172° |
| 2026-05-04 15:40 | 45.66147 | 1.37609 | 38925 ft | 425 kts | 172° |
| 2026-05-04 15:40 | 45.60342 | 1.39230 | 38923 ft | 425 kts | 172° |
| 2026-05-04 15:41 | 45.54527 | 1.40851 | 38925 ft | 425 kts | 172° |
| 2026-05-04 15:41 | 45.48745 | 1.42459 | 38926 ft | 426 kts | 172° |
| 2026-05-04 15:42 | 45.42931 | 1.44074 | 38917 ft | 424 kts | 172° |
| 2026-05-04 15:42 | 45.37135 | 1.45679 | 38910 ft | 425 kts | 173° |
| 2026-05-04 15:43 | 45.31332 | 1.47282 | 38912 ft | 425 kts | 173° |
| 2026-05-04 15:43 | 45.25532 | 1.48882 | 38913 ft | 425 kts | 173° |
| 2026-05-04 15:44 | 45.19728 | 1.50480 | 38910 ft | 424 kts | 173° |
| 2026-05-04 15:44 | 45.13939 | 1.52071 | 38906 ft | 423 kts | 173° |
| 2026-05-04 15:45 | 45.08149 | 1.53658 | 38893 ft | 423 kts | 173° |
| 2026-05-04 15:45 | 45.02368 | 1.55239 | 38904 ft | 423 kts | 173° |
| 2026-05-04 15:46 | 44.96621 | 1.56808 | 38908 ft | 423 kts | 173° |
| 2026-05-04 15:46 | 44.90833 | 1.58385 | 38912 ft | 423 kts | 173° |
| 2026-05-04 15:47 | 44.85045 | 1.59958 | 38913 ft | 424 kts | 173° |
| 2026-05-04 15:47 | 44.79250 | 1.61530 | 38917 ft | 424 kts | 173° |
| 2026-05-04 15:48 | 44.73438 | 1.63103 | 38919 ft | 425 kts | 173° |
| 2026-05-04 15:48 | 44.64727 | 1.65456 | 38924 ft | 425 kts | 173° |
| 2026-05-04 15:49 | 44.59895 | 1.66758 | 38922 ft | 425 kts | 174° |
| 2026-05-04 15:49 | 44.53129 | 1.68578 | 38926 ft | 426 kts | 174° |
| 2026-05-04 15:50 | 44.47309 | 1.70140 | 38927 ft | 426 kts | 174° |
| 2026-05-04 15:50 | 44.42458 | 1.71441 | 38927 ft | 426 kts | 174° |
| 2026-05-04 15:51 | 44.36639 | 1.73000 | 38921 ft | 424 kts | 174° |
| 2026-05-04 15:51 | 44.30850 | 1.74546 | 38923 ft | 424 kts | 174° |
| 2026-05-04 15:52 | 44.25037 | 1.75967 | 38921 ft | 423 kts | 176° |
| 2026-05-04 15:52 | 44.19220 | 1.77202 | 38917 ft | 422 kts | 176° |
| 2026-05-04 15:53 | 44.13417 | 1.78460 | 38917 ft | 421 kts | 176° |
| 2026-05-04 15:53 | 44.07626 | 1.79733 | 38915 ft | 421 kts | 176° |
| 2026-05-04 15:54 | 44.01866 | 1.81000 | 38915 ft | 422 kts | 176° |
| 2026-05-04 15:54 | 43.96092 | 1.82259 | 38915 ft | 418 kts | 178° |
| 2026-05-04 15:55 | 43.90317 | 1.82937 | 38919 ft | 416 kts | 181° |
| 2026-05-04 15:55 | 43.84535 | 1.83482 | 38916 ft | 416 kts | 181° |
| 2026-05-04 15:56 | 43.78770 | 1.84039 | 38912 ft | 413 kts | 181° |
| 2026-05-04 15:56 | 43.73043 | 1.84594 | 38912 ft | 413 kts | 181° |
| 2026-05-04 15:57 | 43.67297 | 1.85149 | 38910 ft | 414 kts | 181° |
| 2026-05-04 15:57 | 43.61563 | 1.85703 | 38894 ft | 413 kts | 181° |
| 2026-05-04 15:58 | 43.55883 | 1.86251 | 38910 ft | 411 kts | 181° |
| 2026-05-04 15:58 | 43.50165 | 1.86799 | 38911 ft | 412 kts | 181° |
| 2026-05-04 15:59 | 43.44434 | 1.87349 | 38908 ft | 412 kts | 181° |
| 2026-05-04 15:59 | 43.38718 | 1.87897 | 38905 ft | 412 kts | 181° |
| 2026-05-04 16:00 | 43.32998 | 1.88443 | 38909 ft | 412 kts | 181° |
| 2026-05-04 16:00 | 43.27266 | 1.88992 | 38912 ft | 413 kts | 181° |
| 2026-05-04 16:01 | 43.21523 | 1.89541 | 38912 ft | 413 kts | 181° |
| 2026-05-04 16:01 | 43.15777 | 1.90089 | 38909 ft | 414 kts | 181° |
| 2026-05-04 16:02 | 43.10030 | 1.90636 | 38912 ft | 414 kts | 181° |
| 2026-05-04 16:03 | 43.01449 | 1.91452 | 38908 ft | 414 kts | 182° |
| 2026-05-04 16:03 | 42.95705 | 1.91995 | 38892 ft | 414 kts | 182° |
| 2026-05-04 16:04 | 42.89952 | 1.92538 | 38893 ft | 415 kts | 182° |
| 2026-05-04 16:04 | 42.81291 | 1.93356 | 38901 ft | 416 kts | 182° |
| 2026-05-04 16:05 | 42.75532 | 1.93899 | 38907 ft | 415 kts | 182° |
| 2026-05-04 16:06 | 42.66884 | 1.94981 | 38915 ft | 420 kts | 176° |
| 2026-05-04 16:07 | 42.55522 | 1.98910 | 38900 ft | 426 kts | 172° |
| 2026-05-04 16:08 | 42.44071 | 2.03024 | 38905 ft | 425 kts | 172° |
| 2026-05-04 16:09 | 42.29765 | 2.08130 | 38915 ft | 425 kts | 172° |
| 2026-05-04 16:10 | 42.18324 | 2.12187 | 38918 ft | 426 kts | 172° |
| 2026-05-04 16:11 | 42.06879 | 2.16235 | 38922 ft | 425 kts | 172° |
| 2026-05-04 16:12 | 41.89796 | 2.22246 | 38925 ft | 424 kts | 172° |
| 2026-05-04 16:13 | 41.78365 | 2.26250 | 38937 ft | 424 kts | 172° |
| 2026-05-04 16:14 | 41.66988 | 2.30226 | 38933 ft | 422 kts | 173° |
| 2026-05-04 16:16 | 41.52759 | 2.35172 | 38921 ft | 423 kts | 173° |
| 2026-05-04 16:17 | 41.38575 | 2.40085 | 38909 ft | 419 kts | 173° |
| 2026-05-04 16:18 | 41.27374 | 2.43952 | 38361 ft | 413 kts | 174° |
| 2026-05-04 16:19 | 41.18908 | 2.46848 | 34825 ft | 426 kts | 173° |
| 2026-05-04 16:19 | 41.13266 | 2.48797 | 33490 ft | 409 kts | 173° |
| 2026-05-04 16:20 | 41.05007 | 2.51622 | 31235 ft | 409 kts | 173° |
| 2026-05-04 16:20 | 40.99498 | 2.53496 | 29628 ft | 412 kts | 173° |
| 2026-05-04 16:21 | 40.91185 | 2.56329 | 28106 ft | 410 kts | 172° |
| 2026-05-04 16:22 | 40.85719 | 2.58194 | 27006 ft | 400 kts | 173° |
| 2026-05-04 16:22 | 40.77758 | 2.60897 | 25391 ft | 388 kts | 173° |
| 2026-05-04 16:23 | 40.69999 | 2.63529 | 23781 ft | 379 kts | 173° |
| 2026-05-04 16:24 | 40.59926 | 2.66905 | 21679 ft | 364 kts | 172° |
| 2026-05-04 16:25 | 40.55073 | 2.68539 | 20692 ft | 356 kts | 172° |
| 2026-05-04 16:26 | 40.45568 | 2.73419 | 18936 ft | 394 kts | 156° |
| 2026-05-04 16:26 | 40.38295 | 2.78718 | 17017 ft | 395 kts | 155° |
| 2026-05-04 16:27 | 40.33558 | 2.82154 | 15938 ft | 383 kts | 155° |
| 2026-05-04 16:28 | 40.26938 | 2.86948 | 15341 ft | 337 kts | 156° |
| 2026-05-04 16:28 | 40.21141 | 2.91127 | 14460 ft | 303 kts | 156° |
| 2026-05-04 16:29 | 40.13808 | 2.96387 | 12900 ft | 296 kts | 156° |
| 2026-05-04 16:30 | 40.08474 | 3.00204 | 11815 ft | 287 kts | 156° |
| 2026-05-04 16:31 | 40.04998 | 3.02692 | 11098 ft | 282 kts | 156° |
| 2026-05-04 16:31 | 39.99887 | 3.06360 | 10040 ft | 276 kts | 156° |
| 2026-05-04 16:32 | 39.94919 | 3.09912 | 8988 ft | 268 kts | 156° |
| 2026-05-04 16:33 | 39.91498 | 3.11298 | 8290 ft | 253 kts | 184° |
| 2026-05-04 16:33 | 39.88043 | 3.10870 | 7613 ft | 247 kts | 189° |
| 2026-05-04 16:34 | 39.85189 | 3.10513 | 7057 ft | 245 kts | 188° |
| 2026-05-04 16:34 | 39.83519 | 3.10306 | 6720 ft | 243 kts | 188° |
| 2026-05-04 16:35 | 39.78200 | 3.09642 | 5861 ft | 278 kts | 188° |
| 2026-05-04 16:35 | 39.72660 | 3.08919 | 5511 ft | 252 kts | 196° |
| 2026-05-04 16:36 | 39.71091 | 3.07972 | 5391 ft | 250 kts | 219° |
| 2026-05-04 16:36 | 39.68977 | 3.04608 | 4888 ft | 231 kts | 238° |
| 2026-05-04 16:37 | 39.67363 | 3.01190 | 4340 ft | 215 kts | 237° |
| 2026-05-04 16:37 | 39.66590 | 2.99559 | 4083 ft | 210 kts | 237° |
| 2026-05-04 16:37 | 39.65116 | 2.96444 | 3549 ft | 194 kts | 237° |
| 2026-05-04 16:38 | 39.63783 | 2.93626 | 3101 ft | 175 kts | 237° |
| 2026-05-04 16:39 | 39.61986 | 2.89826 | 2441 ft | 160 kts | 237° |
| 2026-05-04 16:39 | 39.60754 | 2.87222 | 1996 ft | 167 kts | 238° |
| 2026-05-04 16:40 | 39.59616 | 2.84808 | 1587 ft | 143 kts | 238° |
| 2026-05-04 16:40 | 39.58666 | 2.82797 | 1228 ft | 125 kts | 237° |
| 2026-05-04 16:41 | 39.57793 | 2.80954 | 953 ft | 118 kts | 237° |
| 2026-05-04 16:41 | 39.56487 | 2.78160 | 459 ft | 119 kts | 237° |
| 2026-05-04 16:42 | 39.55201 | 2.75426 | 31 ft | 110 kts | 233° |
| 2026-05-04 16:43 | 39.54832 | 2.74599 | 30 ft | 29 kts | 253° |
| 2026-05-04 16:43 | 39.54803 | 2.74244 | 30 ft | 0 kts | 270° |
| 2026-05-04 16:44 | 39.54748 | 2.73862 | 30 ft | 14 kts | 255° |
| 2026-05-04 16:45 | 39.54663 | 2.73619 | 30 ft | 15 kts | 284° |
| 2026-05-04 16:46 | 39.54869 | 2.73537 | 30 ft | 3 kts | 48° |
| 2026-05-04 16:46 | 39.54872 | 2.73542 | 30 ft | 0 kts | 46° |